createdAt,value
2022-11-24T00:01:25.533Z,3.83
2022-11-24T00:03:55.191Z,10.10
2022-11-24T00:06:22.029Z,6.28
2022-11-24T00:08:48.793Z,6.38
2022-11-24T00:11:19.095Z,4.53
2022-11-24T00:13:46.175Z,6.05
2022-11-24T00:16:19.056Z,9.07
2022-11-24T00:18:47.789Z,4.00
2022-11-24T00:21:15.996Z,5.07
2022-11-24T00:23:43.316Z,8.85
2022-11-24T00:26:14.232Z,8.27
2022-11-24T00:28:42.253Z,5.68
2022-11-24T00:31:22.844Z,4.90
2022-11-24T00:33:51.418Z,4.80
2022-11-24T00:36:19.567Z,5.03
2022-11-24T00:38:46.846Z,2.90
2022-11-24T00:41:14.144Z,3.53
2022-11-24T00:43:40.722Z,3.35
2022-11-24T00:46:07.574Z,13.15
2022-11-24T00:48:34.581Z,2.90
2022-11-24T00:51:03.671Z,5.57
2022-11-24T00:53:30.751Z,19.40
2022-11-24T00:55:57.330Z,2.78
2022-11-24T00:58:25.097Z,4.60
2022-11-24T01:00:52.856Z,9.40
2022-11-24T01:03:20.662Z,3.35
2022-11-24T01:05:47.238Z,2.20
2022-11-24T01:08:13.984Z,3.67
2022-11-24T01:10:40.859Z,2.38
2022-11-24T01:13:07.564Z,2.10
2022-11-24T01:15:36.310Z,3.22
2022-11-24T01:18:03.561Z,2.95
2022-11-24T01:20:30.619Z,2.22
2022-11-24T01:22:57.387Z,2.63
2022-11-24T01:25:24.480Z,2.40
2022-11-24T01:27:51.110Z,2.78
2022-11-24T01:30:17.795Z,3.00
2022-11-24T01:32:44.410Z,2.05
2022-11-24T01:35:10.986Z,3.03
2022-11-24T01:37:37.544Z,3.22
2022-11-24T01:40:04.545Z,3.88
2022-11-24T01:42:43.634Z,3.67
2022-11-24T01:45:28.224Z,3.97
2022-11-24T01:47:55.958Z,2.35
2022-11-24T01:50:23.089Z,3.40
2022-11-24T01:52:54.080Z,4.53
2022-11-24T01:55:25.758Z,3.40
2022-11-24T01:57:59.530Z,4.97
2022-11-24T02:00:26.436Z,3.83
2022-11-24T02:02:53.607Z,4.47
2022-11-24T02:05:31.105Z,4.65
2022-11-24T02:08:01.722Z,2.42
2022-11-24T02:10:29.779Z,4.10
2022-11-24T02:12:59.031Z,3.92
2022-11-24T02:15:26.110Z,3.40
2022-11-24T02:17:52.699Z,6.63
2022-11-24T02:20:19.720Z,9.48
2022-11-24T02:23:08.276Z,10.38
2022-11-24T02:25:55.769Z,9.88
2022-11-24T02:28:24.651Z,4.33
2022-11-24T02:30:52.939Z,6.05
2022-11-24T02:33:21.235Z,7.22
2022-11-24T02:35:48.223Z,9.20
2022-11-24T02:38:15.084Z,8.02
2022-11-24T02:40:46.321Z,7.50
2022-11-24T02:43:18.007Z,6.93
2022-11-24T02:45:44.550Z,7.03
2022-11-24T02:48:11.418Z,5.80
2022-11-24T02:50:38.029Z,5.35
2022-11-24T02:53:04.606Z,7.27
2022-11-24T02:55:31.276Z,6.03
2022-11-24T02:57:57.878Z,6.32
2022-11-24T03:00:24.721Z,7.35
2022-11-24T03:02:51.445Z,6.57
2022-11-24T03:05:18.338Z,5.40
2022-11-24T03:07:44.962Z,7.18
2022-11-24T03:10:12.073Z,6.70
2022-11-24T03:12:38.844Z,7.13
2022-11-24T03:15:06.424Z,8.25
2022-11-24T03:17:32.974Z,9.73
2022-11-24T03:20:04.295Z,7.97
2022-11-24T03:22:31.586Z,6.85
2022-11-24T03:24:58.119Z,6.70
2022-11-24T03:27:24.906Z,6.00
2022-11-24T03:29:51.456Z,6.43
2022-11-24T03:32:18.103Z,7.22
2022-11-24T03:34:45.025Z,6.45
2022-11-24T03:37:11.661Z,6.65
2022-11-24T03:39:38.289Z,5.88
2022-11-24T03:42:04.990Z,7.30
2022-11-24T03:44:31.697Z,6.95
2022-11-24T03:46:58.426Z,7.13
2022-11-24T03:49:25.073Z,6.82
2022-11-24T03:51:51.603Z,6.70
2022-11-24T03:54:18.189Z,7.57
2022-11-24T03:56:44.779Z,8.13
2022-11-24T03:59:11.301Z,7.55
2022-11-24T04:01:37.961Z,8.80
2022-11-24T04:04:04.955Z,8.48
2022-11-24T04:06:31.645Z,8.87
2022-11-24T04:09:00.202Z,7.60
2022-11-24T04:11:26.844Z,8.25
2022-11-24T04:13:54.031Z,7.15
2022-11-24T04:16:20.624Z,7.40
2022-11-24T04:18:47.334Z,7.00
2022-11-24T04:21:13.919Z,6.95
2022-11-24T04:23:40.457Z,7.03
2022-11-24T04:26:07.042Z,8.48
2022-11-24T04:28:33.579Z,7.80
2022-11-24T04:31:04.397Z,7.40
2022-11-24T04:33:31.392Z,6.72
2022-11-24T04:35:58.315Z,6.00
2022-11-24T04:39:23.332Z,5.55
2022-11-24T04:41:11.557Z,6.68
2022-11-24T04:43:40.758Z,6.43
2022-11-24T04:46:10.384Z,4.93
2022-11-24T04:48:37.261Z,6.00
2022-11-24T04:51:07.158Z,6.28
2022-11-24T04:53:33.870Z,4.97
2022-11-24T04:56:05.201Z,6.10
2022-11-24T04:58:31.931Z,4.25
2022-11-24T05:00:58.433Z,3.97
2022-11-24T05:03:25.083Z,3.67
2022-11-24T05:05:51.667Z,6.15
2022-11-24T05:08:18.174Z,7.67
2022-11-24T05:10:44.768Z,7.50
2022-11-24T05:13:12.922Z,7.22
2022-11-24T05:15:41.407Z,6.65
2022-11-24T05:18:12.137Z,6.25
2022-11-24T05:20:38.717Z,6.27
2022-11-24T05:23:06.995Z,6.20
2022-11-24T05:25:35.130Z,6.15
2022-11-24T05:28:06.550Z,7.20
2022-11-24T05:30:33.163Z,4.25
2022-11-24T05:33:05.673Z,7.20
2022-11-24T05:35:32.483Z,7.18
2022-11-24T05:37:59.030Z,6.20
2022-11-24T05:40:25.663Z,6.30
2022-11-24T05:42:52.275Z,7.03
2022-11-24T05:45:21.244Z,6.47
2022-11-24T05:47:49.534Z,6.82
2022-11-24T05:50:18.328Z,6.35
2022-11-24T05:52:45.001Z,6.68
2022-11-24T05:55:12.274Z,6.65
2022-11-24T05:57:38.812Z,7.23
2022-11-24T06:00:06.562Z,8.23
2022-11-24T06:02:33.278Z,8.88
2022-11-24T06:04:59.864Z,8.02
2022-11-24T06:07:26.408Z,5.15
2022-11-24T06:09:52.950Z,8.50
2022-11-24T06:12:19.762Z,7.88
2022-11-24T06:14:46.332Z,7.88
2022-11-24T06:17:13.292Z,8.02
2022-11-24T06:19:42.115Z,7.82
2022-11-24T06:22:08.949Z,8.37
2022-11-24T06:24:35.848Z,6.43
2022-11-24T06:27:02.507Z,6.85
2022-11-24T06:29:28.958Z,8.00
2022-11-24T06:31:55.543Z,9.50
2022-11-24T06:34:22.097Z,9.30
2022-11-24T06:36:48.660Z,9.55
2022-11-24T06:39:15.427Z,9.52
2022-11-24T06:41:41.967Z,8.88
2022-11-24T06:44:08.496Z,8.23
2022-11-24T06:46:35.068Z,8.57
2022-11-24T06:49:01.594Z,9.68
2022-11-24T06:51:28.266Z,9.95
2022-11-24T06:53:54.944Z,10.30
2022-11-24T06:56:22.043Z,9.68
2022-11-24T06:58:50.852Z,10.87
2022-11-24T07:01:23.219Z,7.68
2022-11-24T07:03:51.227Z,10.60
2022-11-24T07:06:18.907Z,7.38
2022-11-24T07:08:45.713Z,9.48
2022-11-24T07:11:15.454Z,10.33
2022-11-24T07:13:43.728Z,10.00
2022-11-24T07:16:14.529Z,9.77
2022-11-24T07:18:42.311Z,11.80
2022-11-24T07:21:08.763Z,11.50
2022-11-24T07:23:35.450Z,11.83
2022-11-24T07:26:06.667Z,11.27
2022-11-24T07:28:34.504Z,10.30
2022-11-24T07:31:12.452Z,10.35
2022-11-24T07:33:39.633Z,10.20
2022-11-24T07:36:08.251Z,8.03
2022-11-24T07:38:35.868Z,7.40
2022-11-24T07:41:07.812Z,10.50
2022-11-24T07:43:36.088Z,12.13
2022-11-24T07:46:03.918Z,10.00
2022-11-24T07:48:30.493Z,9.30
2022-11-24T07:50:59.859Z,11.50
2022-11-24T07:53:27.159Z,9.93
2022-11-24T07:55:57.612Z,12.80
2022-11-24T07:58:27.609Z,12.15
2022-11-24T08:00:57.704Z,13.23
2022-11-24T08:03:25.192Z,13.23
2022-11-24T08:06:22.209Z,12.93
2022-11-24T08:08:42.801Z,11.65
2022-11-24T08:11:15.762Z,12.82
2022-11-24T08:13:43.223Z,11.07
2022-11-24T08:16:12.997Z,12.48
2022-11-24T08:18:39.655Z,9.20
2022-11-24T08:21:07.168Z,9.98
2022-11-24T08:23:34.319Z,11.57
2022-11-24T08:26:06.066Z,10.57
2022-11-24T08:28:32.976Z,13.75
2022-11-24T08:31:08.384Z,11.25
2022-11-24T08:33:35.005Z,11.63
2022-11-24T08:36:09.628Z,10.95
2022-11-24T08:38:36.359Z,10.20
2022-11-24T08:41:05.505Z,9.63
2022-11-24T08:43:32.882Z,9.40
2022-11-24T08:46:04.622Z,9.88
2022-11-24T08:48:31.157Z,10.32
2022-11-24T08:50:59.125Z,9.40
2022-11-24T08:53:25.675Z,10.23
2022-11-24T08:55:52.205Z,9.23
2022-11-24T08:58:18.842Z,10.30
2022-11-24T09:00:45.395Z,8.68
2022-11-24T09:03:12.528Z,10.37
2022-11-24T09:05:54.469Z,9.63
2022-11-24T09:08:20.989Z,9.95
2022-11-24T09:10:47.614Z,9.70
2022-11-24T09:13:14.185Z,10.73
2022-11-24T09:15:41.460Z,11.07
2022-11-24T09:18:08.084Z,11.07
2022-11-24T09:20:34.694Z,10.10
2022-11-24T09:23:01.274Z,7.82
2022-11-24T09:25:27.862Z,12.38
2022-11-24T09:27:54.423Z,11.13
2022-11-24T09:30:21.118Z,10.82
2022-11-24T09:32:47.848Z,11.63
2022-11-24T09:35:14.576Z,11.57
2022-11-24T09:37:41.155Z,11.88
2022-11-24T09:40:10.649Z,12.33
2022-11-24T09:42:43.074Z,10.70
2022-11-24T09:45:19.985Z,11.95
2022-11-24T09:48:04.161Z,10.05
2022-11-24T09:50:36.352Z,7.78
2022-11-24T09:53:05.656Z,11.03
2022-11-24T09:55:48.599Z,9.95
2022-11-24T09:58:48.518Z,9.65
2022-11-24T10:01:24.616Z,11.45
2022-11-24T10:03:52.344Z,11.43
2022-11-24T10:06:31.019Z,11.73
2022-11-24T10:09:25.390Z,11.20
2022-11-24T10:12:06.051Z,11.40
2022-11-24T10:15:09.733Z,11.52
2022-11-24T10:17:54.790Z,11.38
2022-11-24T10:20:45.137Z,11.73
2022-11-24T10:23:53.010Z,9.82
2022-11-24T10:26:40.390Z,11.35
2022-11-24T10:29:12.711Z,8.20
2022-11-24T10:31:45.613Z,12.00
2022-11-24T10:34:22.134Z,11.07
2022-11-24T10:37:01.323Z,10.40
2022-11-24T10:39:46.009Z,8.07
2022-11-24T10:42:33.665Z,12.18
2022-11-24T10:45:02.455Z,12.65
2022-11-24T10:47:30.327Z,9.00
2022-11-24T10:50:00.322Z,10.32
2022-11-24T10:52:30.259Z,10.38
2022-11-24T10:55:05.260Z,11.82
2022-11-24T10:57:34.556Z,13.18
2022-11-24T11:00:04.360Z,12.47
2022-11-24T11:02:37.594Z,11.65
2022-11-24T11:05:43.091Z,13.07
2022-11-24T11:08:21.544Z,12.90
2022-11-24T11:10:50.695Z,14.00
2022-11-24T11:13:28.842Z,14.13
2022-11-24T11:15:57.273Z,13.65
2022-11-24T11:18:31.808Z,10.55
2022-11-24T11:21:00.907Z,13.68
2022-11-24T11:23:45.629Z,13.52
2022-11-24T11:26:24.401Z,11.33
2022-11-24T11:34:53.544Z,14.85
2022-11-24T11:37:21.630Z,15.85
2022-11-24T11:39:54.224Z,14.73
2022-11-24T11:43:01.195Z,14.05
2022-11-24T11:45:36.007Z,14.63
2022-11-24T11:48:03.494Z,13.13
2022-11-24T11:51:06.631Z,14.77
2022-11-24T11:53:40.562Z,12.93
2022-11-24T11:56:24.347Z,13.32
2022-11-24T11:59:03.034Z,12.40
2022-11-24T12:01:51.089Z,13.13
2022-11-24T12:04:45.354Z,12.57
2022-11-24T12:07:25.886Z,13.27
2022-11-24T12:10:22.477Z,13.00
2022-11-24T12:12:57.886Z,12.43
2022-11-24T12:15:38.680Z,11.55
2022-11-24T12:18:49.005Z,12.15
2022-11-24T12:21:12.634Z,10.77
2022-11-24T12:23:56.974Z,11.10
2022-11-24T12:26:46.552Z,12.82
2022-11-24T12:29:37.306Z,11.48
2022-11-24T12:32:36.642Z,12.88
2022-11-24T12:35:05.947Z,12.20
2022-11-24T12:37:40.734Z,10.70
2022-11-24T12:40:14.655Z,11.10
2022-11-24T12:42:49.217Z,11.77
2022-11-24T12:45:20.854Z,10.93
2022-11-24T12:48:01.027Z,14.23
2022-11-24T12:50:30.448Z,7.93
2022-11-24T12:53:05.994Z,10.73
2022-11-24T12:55:33.355Z,13.27
2022-11-24T12:58:25.574Z,13.25
2022-11-24T13:00:57.998Z,12.60
2022-11-24T13:03:35.856Z,12.57
2022-11-24T13:06:24.333Z,9.02
2022-11-24T13:08:51.131Z,11.93
2022-11-24T13:11:21.002Z,10.10
2022-11-24T13:14:11.782Z,12.17
2022-11-24T13:19:44.687Z,14.40
2022-11-24T13:22:16.644Z,15.88
2022-11-24T13:24:43.623Z,12.52
2022-11-24T13:27:16.007Z,14.97
2022-11-24T13:29:48.177Z,12.15
2022-11-24T13:32:14.657Z,12.77
2022-11-24T13:34:41.138Z,12.68
2022-11-24T13:37:26.814Z,11.35
2022-11-24T13:40:03.612Z,13.80
2022-11-24T13:42:43.367Z,14.13
2022-11-24T13:45:40.351Z,13.70
2022-11-24T13:48:19.759Z,11.73
2022-11-24T13:50:52.568Z,15.55
2022-11-24T13:53:27.855Z,16.80
2022-11-24T13:56:03.900Z,15.40
2022-11-24T13:58:31.815Z,16.90
2022-11-24T14:01:03.208Z,15.23
2022-11-24T14:03:34.083Z,16.67
2022-11-24T14:06:02.094Z,15.20
2022-11-24T14:08:37.072Z,17.83
2022-11-24T14:11:13.186Z,15.20
2022-11-24T14:13:40.291Z,15.10
2022-11-24T14:16:09.629Z,19.33
2022-11-24T14:18:38.425Z,12.77
2022-11-24T14:21:20.364Z,15.27
2022-11-24T14:23:51.294Z,14.80
2022-11-24T14:26:42.255Z,13.77
2022-11-24T14:29:21.216Z,13.15
2022-11-24T14:31:55.812Z,9.03
2022-11-24T14:34:23.869Z,12.88
2022-11-24T14:36:52.306Z,13.07
2022-11-24T14:39:23.796Z,11.77
2022-11-24T14:42:06.481Z,8.57
2022-11-24T14:44:42.091Z,13.83
2022-11-24T14:47:32.430Z,11.52
2022-11-24T14:50:15.330Z,9.65
2022-11-24T14:52:49.866Z,11.68
2022-11-24T14:55:26.838Z,14.05
2022-11-24T14:57:53.704Z,10.37
2022-11-24T15:00:30.755Z,12.18
2022-11-24T15:03:17.677Z,11.25
2022-11-24T15:05:50.469Z,11.07
2022-11-24T15:08:27.383Z,12.10
2022-11-24T15:11:00.520Z,11.60
2022-11-24T15:13:36.959Z,11.32
2022-11-24T15:16:14.907Z,11.75
2022-11-24T15:18:42.994Z,10.77
2022-11-24T15:21:14.271Z,9.52
2022-11-24T15:24:05.603Z,12.98
2022-11-24T15:26:38.272Z,9.70
2022-11-24T15:29:08.205Z,11.50
2022-11-24T15:31:34.804Z,8.10
2022-11-24T15:34:01.394Z,10.18
2022-11-24T15:36:28.022Z,9.20
2022-11-24T15:38:54.578Z,9.50
2022-11-24T15:41:27.780Z,8.32
2022-11-24T15:43:54.360Z,8.53
2022-11-24T15:46:20.937Z,6.82
2022-11-24T15:48:47.458Z,9.77
2022-11-24T15:51:14.498Z,8.75
2022-11-24T15:53:45.051Z,7.65
2022-11-24T15:56:22.026Z,9.07
2022-11-24T15:58:48.511Z,9.15
2022-11-24T16:01:15.169Z,8.25
2022-11-24T16:03:47.357Z,7.10
2022-11-24T16:06:24.221Z,9.27
2022-11-24T16:08:53.906Z,8.30
2022-11-24T16:11:21.115Z,9.38
2022-11-24T16:13:52.389Z,9.95
2022-11-24T16:16:20.806Z,9.63
2022-11-24T16:18:47.392Z,9.35
2022-11-24T16:21:14.033Z,10.03
2022-11-24T16:23:40.809Z,9.15
2022-11-24T16:26:07.278Z,10.88
2022-11-24T16:28:35.251Z,9.95
2022-11-24T16:31:02.749Z,9.20
2022-11-24T16:33:29.904Z,10.60
2022-11-24T16:35:56.675Z,12.20
2022-11-24T16:38:23.325Z,11.02
2022-11-24T16:40:54.475Z,11.00
2022-11-24T16:43:20.980Z,10.52
2022-11-24T16:46:03.226Z,11.23
2022-11-24T16:48:32.516Z,10.77
2022-11-24T16:51:05.790Z,10.77
2022-11-24T16:53:32.443Z,12.18
2022-11-24T16:55:58.990Z,11.40
2022-11-24T16:58:25.679Z,7.33
2022-11-24T17:00:52.186Z,11.68
2022-11-24T17:03:18.741Z,12.95
2022-11-24T17:05:56.919Z,11.73
2022-11-24T17:08:23.768Z,11.88
2022-11-24T17:10:50.317Z,11.67
2022-11-24T17:13:16.941Z,10.50
2022-11-24T17:15:48.425Z,5.18
2022-11-24T17:18:24.447Z,10.40
2022-11-24T17:20:51.592Z,11.40
2022-11-24T17:23:18.105Z,9.57
2022-11-24T17:25:44.718Z,10.65
2022-11-24T17:28:11.221Z,10.35
2022-11-24T17:30:37.749Z,9.73
2022-11-24T17:33:04.364Z,7.65
2022-11-24T17:35:30.785Z,7.40
2022-11-24T17:37:57.296Z,8.25
2022-11-24T17:40:28.698Z,8.88
2022-11-24T17:42:59.607Z,5.97
2022-11-24T17:45:27.743Z,5.85
2022-11-24T17:47:54.795Z,5.87
2022-11-24T17:50:25.630Z,4.63
2022-11-24T17:52:53.576Z,8.75
2022-11-24T17:55:20.200Z,8.20
2022-11-24T17:57:46.793Z,5.43
2022-11-24T18:00:14.043Z,6.63
2022-11-24T18:02:40.605Z,5.28
2022-11-24T18:05:07.558Z,8.55
2022-11-24T18:07:35.853Z,4.55
2022-11-24T18:10:02.696Z,4.63
2022-11-24T18:12:29.227Z,7.60
2022-11-24T18:14:55.851Z,9.02
2022-11-24T18:17:22.379Z,8.07
2022-11-24T18:19:48.924Z,9.05
2022-11-24T18:22:15.427Z,8.88
2022-11-24T18:24:41.991Z,4.87
2022-11-24T18:27:08.427Z,7.97
2022-11-24T18:29:35.017Z,6.35
2022-11-24T18:32:01.558Z,7.55
2022-11-24T18:34:28.096Z,7.35
2022-11-24T18:36:54.683Z,6.73
2022-11-24T18:39:21.235Z,8.43
2022-11-24T18:41:47.728Z,7.70
2022-11-24T18:44:14.376Z,6.63
2022-11-24T18:46:40.969Z,7.35
2022-11-24T18:49:07.639Z,7.50
2022-11-24T18:51:34.257Z,8.38
2022-11-24T18:54:00.856Z,6.70
2022-11-24T18:56:27.547Z,8.90
2022-11-24T18:58:55.705Z,7.40
2022-11-24T19:01:25.608Z,7.50
2022-11-24T19:03:54.746Z,8.50
2022-11-24T19:06:32.971Z,8.25
2022-11-24T19:09:15.137Z,8.57
2022-11-24T19:11:44.139Z,6.78
2022-11-24T19:14:13.750Z,8.37
2022-11-24T19:16:40.935Z,7.20
2022-11-24T19:19:08.350Z,8.25
2022-11-24T19:21:38.102Z,7.15
2022-11-24T19:24:06.046Z,10.13
2022-11-24T19:26:34.019Z,7.17
2022-11-24T19:29:00.795Z,8.43
2022-11-24T19:31:27.493Z,9.63
2022-11-24T19:33:54.169Z,9.82
2022-11-24T19:36:22.087Z,8.50
2022-11-24T19:38:53.363Z,8.40
2022-11-24T19:41:22.726Z,9.68
2022-11-24T19:43:49.645Z,9.10
2022-11-24T19:46:18.587Z,9.18
2022-11-24T19:48:47.447Z,9.02
2022-11-24T19:51:19.104Z,5.50
2022-11-24T19:53:46.164Z,8.63
2022-11-24T19:56:15.168Z,10.07
2022-11-24T19:58:42.210Z,8.57
2022-11-24T20:01:17.031Z,8.43
2022-11-24T20:03:46.136Z,10.40
2022-11-24T20:06:14.929Z,10.40
2022-11-24T20:08:42.965Z,9.25
2022-11-24T20:11:12.570Z,8.60
2022-11-24T20:13:41.697Z,9.52
2022-11-24T20:16:13.793Z,8.53
2022-11-24T20:18:42.591Z,7.75
2022-11-24T20:21:21.195Z,7.55
2022-11-24T20:23:54.277Z,8.98
2022-11-24T20:26:22.274Z,8.63
2022-11-24T20:28:49.729Z,8.20
2022-11-24T20:31:18.671Z,8.55
2022-11-24T20:33:45.992Z,7.70
2022-11-24T20:36:18.849Z,7.88
2022-11-24T20:38:46.518Z,8.20
2022-11-24T20:41:24.921Z,6.97
2022-11-24T20:43:53.239Z,8.00
2022-11-24T20:46:23.146Z,6.80
2022-11-24T20:48:50.327Z,6.88
2022-11-24T20:51:17.905Z,7.35
2022-11-24T20:53:44.740Z,8.20
2022-11-24T20:56:17.591Z,8.40
2022-11-24T20:58:44.231Z,6.68
2022-11-24T21:01:16.846Z,6.60
2022-11-24T21:03:44.369Z,8.27
2022-11-24T21:06:12.934Z,6.57
2022-11-24T21:08:41.851Z,7.30
2022-11-24T21:11:11.450Z,6.95
2022-11-24T21:13:39.909Z,6.43
2022-11-24T21:16:26.201Z,6.03
2022-11-24T21:18:55.552Z,5.93
2022-11-24T21:21:23.822Z,6.78
2022-11-24T21:23:51.351Z,6.60
2022-11-24T21:26:19.230Z,6.90
2022-11-24T21:28:47.333Z,6.55
2022-11-24T21:31:20.324Z,7.67
2022-11-24T21:33:52.387Z,7.88
2022-11-24T21:36:21.562Z,4.82
2022-11-24T21:38:55.880Z,7.85
2022-11-24T21:41:23.804Z,8.38
2022-11-24T21:43:52.381Z,8.87
2022-11-24T21:46:19.164Z,7.22
2022-11-24T21:48:45.691Z,7.32
2022-11-24T21:51:16.965Z,6.45
2022-11-24T21:53:44.887Z,8.32
2022-11-24T21:56:13.810Z,8.03
2022-11-24T21:58:48.069Z,8.50
2022-11-24T22:01:16.954Z,6.25
2022-11-24T22:03:43.879Z,5.85
2022-11-24T22:06:10.655Z,9.07
2022-11-24T22:08:38.018Z,8.80
2022-11-24T22:11:11.887Z,7.35
2022-11-24T22:13:38.790Z,4.88
2022-11-24T22:16:11.335Z,4.10
2022-11-24T22:18:40.274Z,8.90
2022-11-24T22:21:10.212Z,7.50
2022-11-24T22:23:37.076Z,9.00
2022-11-24T22:26:06.203Z,6.55
2022-11-24T22:28:34.151Z,7.07
2022-11-24T22:31:08.293Z,8.35
2022-11-24T22:33:35.429Z,9.27
2022-11-24T22:36:02.536Z,6.10
2022-11-24T22:38:30.409Z,8.60
2022-11-24T22:41:09.140Z,9.40
2022-11-24T22:43:36.764Z,7.10
2022-11-24T22:46:11.509Z,7.73
2022-11-24T22:48:38.731Z,9.55
2022-11-24T22:51:07.743Z,9.30
2022-11-24T22:53:34.641Z,7.88
2022-11-24T22:56:06.082Z,6.97
2022-11-24T22:58:33.507Z,8.60
2022-11-24T23:01:16.673Z,8.63
2022-11-24T23:03:44.055Z,2.40
2022-11-24T23:06:14.115Z,6.70
2022-11-24T23:08:41.026Z,7.57
2022-11-24T23:11:19.677Z,7.13
2022-11-24T23:13:46.942Z,7.82
2022-11-24T23:16:15.656Z,5.43
2022-11-24T23:18:42.761Z,7.38
2022-11-24T23:21:15.407Z,7.57
2022-11-24T23:23:42.807Z,6.20
2022-11-24T23:26:14.321Z,7.60
2022-11-24T23:28:42.282Z,9.20
2022-11-24T23:31:12.462Z,10.63
2022-11-24T23:33:39.630Z,11.23
2022-11-24T23:36:09.134Z,11.80
2022-11-24T23:38:36.075Z,8.93
2022-11-24T23:41:05.340Z,9.60
2022-11-24T23:43:33.227Z,10.80
2022-11-24T23:46:07.968Z,10.30
2022-11-24T23:48:35.739Z,9.87
2022-11-24T23:51:13.229Z,11.48
2022-11-24T23:53:39.830Z,9.13
2022-11-24T23:56:07.090Z,10.50
2022-11-24T23:58:34.345Z,10.20
